Terminal Aerodrome Forecast
Issued by NWS

Home | Current Version | Previous Version | Text Only | Print | Product List | Glossary On
Versions: 1 2 3 4 5 6 7 8 9 10 11 12 13 14 15 16 17 18 19 20
845
FTUS46 KLOX 290706 AAA
TAFLGB
TAF AMD
KLGB 290706Z 2907/3006 19008KT P6SM OVC015
     FM291100 14005KT P6SM OVC020
     FM291700 19009KT P6SM FEW024 SCT250
     FM300100 29009KT P6SM SCT250=

USA.gov is the U.S. government's official web portal to all federal, state and local government web resources and services.